Time;durP1;ratioP1;P1;durP2;ratioP2;P2;SDS_P1;SDS_P2;PMS_P1;PMS_P2;Temp;Humidity;BMP_temperature;BMP_pressure;BME280_temperature;BME280_humidity;BME280_pressure;Samples;Min_cycle;Max_cycle;Signal;HPM_P1;HPM_P2
2024/04/02 00:01:11;;;;;;;14.98;5.03;;;7.90;99.90;;;;;;5049649;28;20036;-87
2024/04/02 00:03:38;;;;;;;9.27;5.07;;;7.30;99.90;;;;;;5047139;28;20636;-87
2024/04/02 00:06:04;;;;;;;12.68;5.35;;;7.90;99.90;;;;;;5064364;28;20034;-88
2024/04/02 00:08:31;;;;;;;9.25;5.25;;;7.30;99.90;;;;;;5041770;28;20037;-87
2024/04/02 00:11:06;;;;;;;10.63;4.70;;;7.40;99.90;;;;;;5030502;28;20045;-87
2024/04/02 00:13:34;;;;;;;10.35;5.32;;;7.30;99.90;;;;;;5031005;28;20073;-87
2024/04/02 00:16:01;;;;;;;10.38;5.25;;;7.40;99.90;;;;;;5055259;28;20042;-87
2024/04/02 00:18:29;;;;;;;16.20;5.97;;;8.20;99.90;;;;;;5034709;28;20038;-87
2024/04/02 00:21:00;;;;;;;13.18;6.22;;;7.30;99.90;;;;;;5048723;28;20041;-87
2024/04/02 00:23:27;;;;;;;12.43;5.80;;;7.60;99.90;;;;;;5037489;28;20124;-87
2024/04/02 00:26:03;;;;;;;9.38;5.47;;;7.40;99.90;;;;;;5034042;28;20076;-88
2024/04/02 00:28:30;;;;;;;13.68;6.10;;;7.30;99.90;;;;;;5030749;28;20510;-87
2024/04/02 00:31:03;;;;;;;10.05;5.70;;;7.80;99.90;;;;;;5048365;28;20041;-87
2024/04/02 00:33:29;;;;;;;15.57;6.78;;;7.60;99.90;;;;;;5036534;28;20034;-87
2024/04/02 00:36:04;;;;;;;11.07;5.97;;;7.40;99.90;;;;;;5050551;28;20406;-87
2024/04/02 00:38:31;;;;;;;14.00;6.28;;;7.30;99.90;;;;;;5039741;28;20037;-88
2024/04/02 00:40:58;;;;;;;12.38;6.32;;;7.50;99.90;;;;;;5036063;28;20066;-88
2024/04/02 00:43:25;;;;;;;11.93;6.00;;;7.30;99.90;;;;;;5034533;28;20037;-87
2024/04/02 00:45:53;;;;;;;13.30;6.90;;;7.30;99.90;;;;;;5045925;28;20060;-87
2024/04/02 00:48:21;;;;;;;14.88;7.07;;;7.30;99.90;;;;;;5040599;28;20056;-87
2024/04/02 00:50:49;;;;;;;18.98;6.80;;;7.30;99.90;;;;;;5051068;28;20045;-87
2024/04/02 00:53:19;;;;;;;13.52;6.82;;;7.30;99.90;;;;;;5062744;28;20117;-87
2024/04/02 00:55:46;;;;;;;14.02;6.88;;;7.30;99.90;;;;;;5045134;28;20087;-87
2024/04/02 00:58:16;;;;;;;11.75;7.00;;;7.60;99.90;;;;;;5051538;28;20045;-87
2024/04/02 01:00:43;;;;;;;13.02;7.07;;;7.30;99.90;;;;;;5044096;28;20045;-87
2024/04/02 01:03:10;;;;;;;13.43;7.13;;;7.70;99.90;;;;;;5040243;28;20041;-88
2024/04/02 01:05:38;;;;;;;14.88;7.45;;;8.10;99.90;;;;;;5051807;28;20044;-87
2024/04/02 01:08:05;;;;;;;13.27;7.22;;;7.20;99.90;;;;;;5048647;28;20618;-88
2024/04/02 01:10:32;;;;;;;12.70;7.38;;;7.10;99.90;;;;;;5066517;28;20109;-88
2024/04/02 01:12:59;;;;;;;13.93;7.22;;;7.10;99.90;;;;;;5064094;28;20096;-87
2024/04/02 01:15:26;;;;;;;14.05;7.43;;;7.10;99.90;;;;;;5054384;28;20076;-88
2024/04/02 01:17:54;;;;;;;22.17;7.63;;;8.20;99.90;;;;;;5036839;28;20066;-88
2024/04/02 01:20:21;;;;;;;14.05;7.40;;;7.10;99.90;;;;;;5048943;28;20053;-88
2024/04/02 01:22:52;;;;;;;13.55;7.10;;;7.80;99.90;;;;;;5037532;28;20045;-88
2024/04/02 01:25:22;;;;;;;13.32;7.05;;;7.10;99.90;;;;;;5053310;28;20486;-88
2024/04/02 01:27:49;;;;;;;10.80;6.80;;;7.10;99.90;;;;;;5035091;28;20033;-88
2024/04/02 01:30:16;;;;;;;12.88;7.63;;;7.10;99.90;;;;;;5041665;28;20095;-88
2024/04/02 01:32:42;;;;;;;16.08;6.88;;;7.10;99.90;;;;;;5036895;28;20487;-88
2024/04/02 01:35:10;;;;;;;16.58;7.25;;;7.30;99.90;;;;;;5057505;28;20059;-88
2024/04/02 01:37:37;;;;;;;14.20;7.60;;;6.70;99.90;;;;;;5059976;28;20038;-88
2024/04/02 01:40:04;;;;;;;16.45;7.82;;;8.10;99.90;;;;;;5046554;28;20033;-88
2024/04/02 01:42:30;;;;;;;12.73;7.35;;;7.20;99.90;;;;;;5041520;28;20509;-88
2024/04/02 01:44:58;;;;;;;13.98;7.50;;;8.00;99.90;;;;;;5037808;28;20482;-88
2024/04/02 01:47:25;;;;;;;15.75;8.00;;;8.00;99.90;;;;;;5038201;28;20038;-88
2024/04/02 01:49:51;;;;;;;13.70;8.13;;;7.20;99.90;;;;;;5041147;28;20163;-88
2024/04/02 01:52:18;;;;;;;13.10;7.30;;;7.20;99.90;;;;;;5043015;28;20398;-88
2024/04/02 01:54:45;;;;;;;16.08;9.02;;;7.20;99.90;;;;;;5044504;28;20129;-88
2024/04/02 01:57:11;;;;;;;17.50;7.97;;;7.20;99.90;;;;;;5032928;28;20081;-88
2024/04/02 01:59:38;;;;;;;16.15;8.07;;;7.20;99.90;;;;;;5043193;28;20095;-88
2024/04/02 02:02:05;;;;;;;14.35;8.10;;;8.10;99.90;;;;;;5053038;28;20037;-88
2024/04/02 02:04:33;;;;;;;15.18;8.65;;;7.10;99.90;;;;;;5045633;28;20045;-88
2024/04/02 02:07:00;;;;;;;18.30;8.93;;;7.10;99.90;;;;;;5042403;28;20057;-87
2024/04/02 02:09:27;;;;;;;12.60;8.52;;;7.20;99.90;;;;;;5047710;28;20056;-87
2024/04/02 02:11:53;;;;;;;18.10;8.63;;;7.20;99.90;;;;;;5049678;28;20471;-88
2024/04/02 02:14:20;;;;;;;16.77;9.10;;;7.20;99.90;;;;;;5049317;28;20041;-88
2024/04/02 02:16:49;;;;;;;18.55;8.23;;;7.40;99.90;;;;;;5059668;28;20122;-88
2024/04/02 02:19:15;;;;;;;11.80;7.85;;;7.20;99.90;;;;;;5059822;28;20100;-88
2024/04/02 02:21:42;;;;;;;14.13;7.85;;;7.30;99.90;;;;;;5059577;28;20498;-88
2024/04/02 02:24:09;;;;;;;17.27;8.63;;;7.30;99.90;;;;;;5036660;28;20073;-88
2024/04/02 02:26:36;;;;;;;12.80;8.45;;;7.20;99.90;;;;;;5044839;28;20105;-88
2024/04/02 02:29:03;;;;;;;15.70;8.82;;;7.50;99.90;;;;;;5039047;28;20064;-87
2024/04/02 02:31:30;;;;;;;15.32;7.82;;;7.10;99.90;;;;;;5040951;28;20038;-88
2024/04/02 02:33:56;;;;;;;13.82;8.13;;;7.60;99.90;;;;;;5048571;28;20391;-88
2024/04/02 02:36:23;;;;;;;14.45;7.80;;;7.20;99.90;;;;;;5050593;28;20482;-88
2024/04/02 02:38:49;;;;;;;14.48;8.00;;;7.10;99.90;;;;;;5038733;28;20702;-88
2024/04/02 02:41:16;;;;;;;15.98;7.95;;;7.10;99.90;;;;;;5050019;28;20136;-88
2024/04/02 02:43:43;;;;;;;12.45;7.68;;;7.20;99.90;;;;;;5062392;28;20499;-88
2024/04/02 02:46:09;;;;;;;13.13;7.57;;;7.20;99.90;;;;;;5031919;28;20038;-87
2024/04/02 02:48:36;;;;;;;15.40;7.43;;;7.50;99.90;;;;;;5040001;28;20041;-88
2024/04/02 02:51:02;;;;;;;13.45;7.38;;;7.10;99.90;;;;;;5040860;28;20454;-88
2024/04/02 02:53:29;;;;;;;12.25;7.40;;;7.10;99.90;;;;;;5058314;28;20065;-88
2024/04/02 02:55:56;;;;;;;15.07;7.85;;;7.10;99.90;;;;;;5039480;28;20053;-88
2024/04/02 02:58:23;;;;;;;14.05;7.97;;;7.10;99.90;;;;;;5037017;28;20036;-88
2024/04/02 03:00:49;;;;;;;14.45;7.68;;;7.10;99.90;;;;;;5031991;28;20045;-87
2024/04/02 03:03:16;;;;;;;14.40;7.75;;;7.10;99.90;;;;;;5059153;28;20034;-87
2024/04/02 03:05:53;;;;;;;14.30;7.32;;;7.90;99.90;;;;;;5031852;28;20040;-87
2024/04/02 03:08:21;;;;;;;14.20;7.22;;;7.00;99.90;;;;;;5032863;28;20557;-87
2024/04/02 03:11:03;;;;;;;14.02;7.18;;;7.00;99.90;;;;;;5047387;28;20067;-88
2024/04/02 03:13:31;;;;;;;13.80;7.22;;;7.00;99.90;;;;;;5038465;28;20077;-87
2024/04/02 03:15:58;;;;;;;11.15;6.53;;;7.20;99.90;;;;;;5063164;28;20048;-88
2024/04/02 03:18:25;;;;;;;11.57;6.60;;;7.40;99.90;;;;;;5040333;28;20037;-88
2024/04/02 03:20:51;;;;;;;12.18;6.88;;;7.00;99.90;;;;;;5061785;28;20569;-87
2024/04/02 03:23:19;;;;;;;10.25;6.30;;;7.50;99.90;;;;;;5048633;28;20041;-88
2024/04/02 03:25:53;;;;;;;12.13;6.65;;;7.00;99.90;;;;;;5046773;28;20116;-88
2024/04/02 03:28:20;;;;;;;14.45;6.32;;;6.90;99.90;;;;;;5039408;28;20048;-88
2024/04/02 03:30:47;;;;;;;12.63;5.97;;;7.70;99.90;;;;;;5036188;28;20128;-88
2024/04/02 03:33:15;;;;;;;10.52;5.40;;;7.00;99.90;;;;;;5041604;28;20096;-87
2024/04/02 03:35:42;;;;;;;11.30;5.90;;;7.00;99.90;;;;;;5039072;28;20037;-88
2024/04/02 03:38:08;;;;;;;12.55;6.63;;;7.00;99.90;;;;;;5038613;28;20561;-87
2024/04/02 03:40:39;;;;;;;9.68;5.78;;;8.00;99.90;;;;;;5031306;28;20487;-88
2024/04/02 03:43:06;;;;;;;11.20;6.00;;;7.20;99.90;;;;;;5054638;28;20038;-88
2024/04/02 03:45:40;;;;;;;11.55;6.60;;;7.00;99.90;;;;;;5030967;28;20034;-88
2024/04/02 03:48:07;;;;;;;9.88;5.70;;;7.00;99.90;;;;;;5032715;28;20509;-88
2024/04/02 03:50:38;;;;;;;13.88;6.53;;;7.30;99.90;;;;;;5048253;28;20437;-88
2024/04/02 03:53:06;;;;;;;11.02;6.32;;;7.00;99.90;;;;;;5048339;28;20144;-87
2024/04/02 03:55:34;;;;;;;11.07;6.25;;;7.00;99.90;;;;;;5031557;28;20030;-88
2024/04/02 03:58:02;;;;;;;11.25;6.20;;;7.80;99.90;;;;;;5033146;28;20491;-88
2024/04/02 04:00:29;;;;;;;12.25;6.28;;;7.20;99.90;;;;;;5042260;28;20076;-88
2024/04/02 04:02:56;;;;;;;11.05;6.00;;;7.00;99.90;;;;;;5037397;28;20092;-88
2024/04/02 04:05:24;;;;;;;10.55;6.47;;;7.90;99.90;;;;;;5042279;28;20043;-87
2024/04/02 04:07:51;;;;;;;10.93;6.70;;;7.00;99.90;;;;;;5046784;28;20057;-88
2024/04/02 04:10:17;;;;;;;12.27;7.00;;;6.90;99.90;;;;;;5041192;28;20042;-88
2024/04/02 04:12:45;;;;;;;11.85;7.25;;;6.90;99.90;;;;;;5047697;28;20042;-87
2024/04/02 04:15:11;;;;;;;13.10;6.78;;;6.90;99.90;;;;;;5039959;28;20137;-88
2024/04/02 04:17:38;;;;;;;9.82;6.90;;;6.90;99.90;;;;;;5033681;28;20068;-88
2024/04/02 04:20:07;;;;;;;9.45;6.50;;;6.90;99.90;;;;;;5035550;28;20046;-88
2024/04/02 04:22:33;;;;;;;13.18;7.70;;;6.90;99.90;;;;;;5036209;28;20625;-88
2024/04/02 04:25:02;;;;;;;12.38;7.78;;;6.90;99.90;;;;;;5058211;28;20120;-88
2024/04/02 04:27:32;;;;;;;12.60;7.03;;;6.90;99.90;;;;;;5064599;28;20045;-88
2024/04/02 04:30:05;;;;;;;13.38;7.15;;;6.90;99.90;;;;;;5044147;28;20124;-88
2024/04/02 04:32:36;;;;;;;13.07;7.40;;;6.80;99.90;;;;;;5055903;28;20033;-88
2024/04/02 04:35:03;;;;;;;13.50;7.05;;;6.90;99.90;;;;;;5044048;28;20038;-88
2024/04/02 04:37:33;;;;;;;11.90;7.05;;;6.80;99.90;;;;;;5036669;28;20030;-88
2024/04/02 04:39:59;;;;;;;12.00;6.93;;;6.90;99.90;;;;;;5035150;28;20056;-89
2024/04/02 04:42:26;;;;;;;9.85;6.05;;;6.80;99.90;;;;;;5047189;28;20050;-88
2024/04/02 04:44:52;;;;;;;10.60;6.43;;;6.90;99.90;;;;;;5067213;28;20041;-88
2024/04/02 04:47:19;;;;;;;10.38;6.38;;;6.80;99.90;;;;;;5045253;28;20046;-88
2024/04/02 04:49:46;;;;;;;12.73;6.13;;;7.10;99.90;;;;;;5036500;28;20664;-88
2024/04/02 04:52:12;;;;;;;12.02;7.07;;;6.80;99.90;;;;;;5037144;28;20080;-88
2024/04/02 04:54:39;;;;;;;12.65;6.25;;;7.20;99.90;;;;;;5034561;28;20042;-88
2024/04/02 04:57:07;;;;;;;11.93;6.50;;;6.90;99.90;;;;;;5046694;28;20204;-88
2024/04/02 04:59:34;;;;;;;10.98;6.57;;;7.20;99.90;;;;;;5040342;28;20038;-88
2024/04/02 05:02:00;;;;;;;9.52;6.10;;;6.80;99.90;;;;;;5052503;28;20044;-88
2024/04/02 05:04:27;;;;;;;11.70;6.35;;;7.70;99.90;;;;;;5046701;28;20038;-88
2024/04/02 05:06:54;;;;;;;12.48;6.45;;;6.80;99.90;;;;;;5041897;28;20099;-88
2024/04/02 05:09:21;;;;;;;11.27;6.85;;;6.80;99.90;;;;;;5049870;28;20068;-87
2024/04/02 05:11:47;;;;;;;9.40;6.30;;;6.80;99.90;;;;;;5043920;28;20046;-88
2024/04/02 05:14:14;;;;;;;9.07;6.13;;;7.40;99.90;;;;;;5046548;28;20128;-88
2024/04/02 05:16:42;;;;;;;11.52;6.07;;;6.80;99.90;;;;;;5065182;28;20494;-88
2024/04/02 05:19:09;;;;;;;10.15;5.30;;;6.80;99.90;;;;;;5061294;28;20044;-88
2024/04/02 05:21:35;;;;;;;12.98;5.65;;;6.80;99.90;;;;;;5047869;28;20037;-88
2024/04/02 05:24:03;;;;;;;12.27;6.20;;;8.00;99.90;;;;;;5050075;28;20073;-88
2024/04/02 05:26:30;;;;;;;9.45;5.22;;;6.80;99.90;;;;;;5064263;28;20046;-88
2024/04/02 05:28:56;;;;;;;11.25;5.93;;;6.80;99.90;;;;;;5044323;28;20090;-88
2024/04/02 05:31:23;;;;;;;13.13;5.70;;;6.80;99.90;;;;;;5052546;28;20037;-88
2024/04/02 05:33:52;;;;;;;10.07;5.75;;;6.80;99.90;;;;;;5048671;28;20046;-88
2024/04/02 05:36:18;;;;;;;12.63;5.80;;;7.00;99.90;;;;;;5032304;28;20406;-88
2024/04/02 05:38:45;;;;;;;13.85;5.85;;;6.90;99.90;;;;;;5033129;28;20034;-88
2024/04/02 05:41:12;;;;;;;10.18;5.50;;;7.20;99.90;;;;;;5044216;28;20061;-88
2024/04/02 05:43:38;;;;;;;8.77;5.20;;;7.00;99.90;;;;;;5039496;28;20045;-88
2024/04/02 05:46:05;;;;;;;11.38;5.82;;;6.80;99.90;;;;;;5035457;28;20038;-88
2024/04/02 05:48:32;;;;;;;8.02;4.88;;;7.50;99.90;;;;;;5041759;28;20038;-88
2024/04/02 05:50:58;;;;;;;8.25;5.00;;;6.80;99.90;;;;;;5051520;28;20121;-87
2024/04/02 05:53:25;;;;;;;8.80;5.35;;;6.90;99.90;;;;;;5038454;28;20044;-87
2024/04/02 05:55:52;;;;;;;11.10;4.95;;;6.90;99.90;;;;;;5044190;28;20410;-88
2024/04/02 05:58:18;;;;;;;8.30;4.82;;;7.20;99.90;;;;;;5054869;28;20108;-88
2024/04/02 06:00:45;;;;;;;9.80;5.30;;;6.90;99.90;;;;;;5037897;28;20100;-88
2024/04/02 06:03:12;;;;;;;11.27;4.93;;;7.70;99.90;;;;;;5032288;28;20049;-88
2024/04/02 06:05:38;;;;;;;11.20;5.18;;;8.10;99.90;;;;;;5042835;28;20095;-88
2024/04/02 06:08:05;;;;;;;8.65;4.78;;;7.00;99.90;;;;;;5040669;28;20058;-87
2024/04/02 06:10:32;;;;;;;10.48;5.32;;;7.00;99.90;;;;;;5050206;28;20036;-87
2024/04/02 06:12:58;;;;;;;12.27;5.72;;;7.00;99.90;;;;;;5042278;28;20041;-87
2024/04/02 06:15:25;;;;;;;11.35;4.95;;;7.30;99.90;;;;;;5031776;28;20034;-88
2024/04/02 06:17:52;;;;;;;9.15;5.35;;;7.10;99.90;;;;;;5044780;28;20538;-88
2024/04/02 06:20:19;;;;;;;8.95;4.78;;;8.30;99.90;;;;;;5035652;28;20126;-88
2024/04/02 06:22:46;;;;;;;9.50;4.70;;;7.20;99.90;;;;;;5049789;28;20048;-88
2024/04/02 06:25:12;;;;;;;8.32;5.22;;;7.20;99.90;;;;;;5033114;28;20038;-88
2024/04/02 06:27:41;;;;;;;12.30;5.55;;;7.30;99.90;;;;;;5037299;28;20041;-87
2024/04/02 06:30:08;;;;;;;11.00;5.30;;;7.20;99.90;;;;;;5040170;28;20045;-88
2024/04/02 06:32:34;;;;;;;9.57;5.78;;;7.30;99.90;;;;;;5036972;28;20514;-87
2024/04/02 06:35:01;;;;;;;7.88;5.30;;;7.70;99.90;;;;;;5036335;28;20037;-88
2024/04/02 06:37:28;;;;;;;13.98;5.75;;;7.50;99.90;;;;;;5056598;28;20037;-88
2024/04/02 06:39:54;;;;;;;9.25;5.35;;;8.40;99.90;;;;;;5037879;28;20115;-88
2024/04/02 06:42:21;;;;;;;8.65;5.40;;;7.60;99.90;;;;;;5037910;28;20073;-88
2024/04/02 06:44:48;;;;;;;11.10;5.28;;;7.70;99.90;;;;;;5045143;28;20037;-88
2024/04/02 06:47:15;;;;;;;10.57;5.32;;;7.70;99.90;;;;;;5041820;28;20140;-88
2024/04/02 06:49:42;;;;;;;9.77;5.50;;;7.80;99.90;;;;;;5038300;28;20133;-88
2024/04/02 06:52:12;;;;;;;10.07;5.78;;;7.80;99.90;;;;;;5042569;28;20124;-87
2024/04/02 06:54:38;;;;;;;10.25;5.38;;;7.80;99.90;;;;;;5043422;28;20468;-88
2024/04/02 06:57:05;;;;;;;7.60;5.22;;;8.40;99.90;;;;;;5039812;28;20033;-88
2024/04/02 06:59:31;;;;;;;9.68;5.53;;;8.60;99.90;;;;;;5040591;28;20037;-88
2024/04/02 07:01:58;;;;;;;10.20;4.93;;;8.10;99.90;;;;;;5047187;28;20033;-87
2024/04/02 07:04:27;;;;;;;9.57;5.40;;;8.10;99.90;;;;;;5038470;28;20691;-86
2024/04/02 07:06:54;;;;;;;11.88;5.45;;;8.20;99.90;;;;;;5030352;28;20216;-86
2024/04/02 07:09:20;;;;;;;9.35;5.60;;;8.40;99.90;;;;;;5030854;28;20120;-86
2024/04/02 07:11:47;;;;;;;10.18;5.50;;;8.30;99.90;;;;;;5037048;28;20048;-86
2024/04/02 07:14:14;;;;;;;14.40;5.38;;;8.40;99.90;;;;;;5050503;28;20048;-87
2024/04/02 07:16:40;;;;;;;8.38;5.10;;;8.40;99.90;;;;;;5034538;28;20038;-86
2024/04/02 07:19:07;;;;;;;9.88;5.25;;;8.50;99.90;;;;;;5053636;28;20041;-86
2024/04/02 07:21:33;;;;;;;10.73;5.43;;;9.60;99.90;;;;;;5036465;28;20096;-85
2024/04/02 07:24:00;;;;;;;11.15;5.70;;;9.50;99.90;;;;;;5037850;28;20482;-87
2024/04/02 07:26:27;;;;;;;10.13;5.22;;;8.70;99.90;;;;;;5039694;28;20049;-86
2024/04/02 07:28:53;;;;;;;11.40;5.22;;;8.80;99.90;;;;;;5044627;28;20058;-87
2024/04/02 07:31:24;;;;;;;11.02;5.32;;;8.80;99.90;;;;;;5037241;28;20509;-87
2024/04/02 07:33:51;;;;;;;10.35;5.53;;;9.70;99.90;;;;;;5030431;28;20041;-87
2024/04/02 07:36:18;;;;;;;8.70;4.88;;;9.00;99.90;;;;;;5040123;28;20033;-86
2024/04/02 07:38:45;;;;;;;8.55;5.25;;;9.10;99.90;;;;;;5037103;28;20041;-86
2024/04/02 07:41:11;;;;;;;9.95;4.88;;;9.50;99.90;;;;;;5032005;28;20034;-86
2024/04/02 07:43:38;;;;;;;7.75;4.72;;;9.30;99.90;;;;;;5033836;28;20564;-86
2024/04/02 07:46:05;;;;;;;7.65;5.00;;;9.40;99.90;;;;;;5039458;28;20083;-86
2024/04/02 07:48:32;;;;;;;13.23;5.20;;;10.10;99.90;;;;;;5042558;28;20048;-87
2024/04/02 07:51:06;;;;;;;8.38;4.65;;;9.50;99.90;;;;;;5032391;28;20042;-86
2024/04/02 07:53:33;;;;;;;10.40;5.00;;;9.60;99.90;;;;;;5031753;28;20518;-86
2024/04/02 07:56:00;;;;;;;10.50;5.32;;;9.80;99.90;;;;;;5030024;28;20038;-85
2024/04/02 07:58:27;;;;;;;7.53;4.78;;;9.90;99.90;;;;;;5033700;28;20129;-86
2024/04/02 08:00:54;;;;;;;8.95;4.63;;;9.90;99.90;;;;;;5041783;28;20030;-86
2024/04/02 08:03:21;;;;;;;8.38;4.82;;;10.10;99.90;;;;;;5049073;28;20034;-86
2024/04/02 08:05:58;;;;;;;8.07;4.55;;;10.00;99.90;;;;;;5040093;28;20061;-86
2024/04/02 08:08:25;;;;;;;9.27;4.78;;;10.10;99.90;;;;;;5044482;28;20046;-86
2024/04/02 08:10:52;;;;;;;10.73;4.90;;;10.20;99.90;;;;;;5048966;28;20094;-86
2024/04/02 08:13:18;;;;;;;12.10;4.28;;;10.30;99.90;;;;;;5065449;28;20045;-86
2024/04/02 08:15:48;;;;;;;10.77;4.30;;;10.40;99.90;;;;;;5033765;28;20044;-86
2024/04/02 08:18:15;;;;;;;9.30;4.35;;;10.50;99.90;;;;;;5041290;28;20510;-85
2024/04/02 08:20:42;;;;;;;10.10;4.55;;;10.50;99.90;;;;;;5043546;28;20054;-86
2024/04/02 08:23:08;;;;;;;10.82;4.55;;;10.50;99.90;;;;;;5033568;28;20510;-86
2024/04/02 08:25:36;;;;;;;10.75;4.60;;;10.50;99.90;;;;;;5035265;28;20068;-86
2024/04/02 08:28:06;;;;;;;10.30;4.78;;;10.50;99.90;;;;;;5037430;28;20038;-86
2024/04/02 08:30:36;;;;;;;10.60;4.35;;;10.50;99.90;;;;;;5036800;28;20703;-86
2024/04/02 08:33:03;;;;;;;10.18;4.68;;;10.50;99.90;;;;;;5048648;28;20030;-86
2024/04/02 08:35:29;;;;;;;7.93;4.10;;;10.50;99.90;;;;;;5045307;28;20033;-85
2024/04/02 08:37:56;;;;;;;11.38;4.30;;;11.00;99.90;;;;;;5037226;28;20237;-86
2024/04/02 08:40:30;;;;;;;10.90;4.28;;;10.50;99.90;;;;;;5050520;28;20511;-86
2024/04/02 08:43:05;;;;;;;10.63;4.82;;;10.50;99.90;;;;;;5036180;28;20057;-86
2024/04/02 08:45:33;;;;;;;8.40;4.57;;;10.60;99.90;;;;;;5033723;28;20038;-86
2024/04/02 08:48:00;;;;;;;10.15;4.70;;;10.70;99.90;;;;;;5043080;28;20048;-86
2024/04/02 08:50:26;;;;;;;9.25;4.45;;;10.70;99.90;;;;;;5050278;28;20034;-87
2024/04/02 08:52:54;;;;;;;7.97;4.38;;;10.90;99.90;;;;;;5044070;28;20041;-86
2024/04/02 08:55:20;;;;;;;10.20;4.30;;;11.00;99.90;;;;;;5039803;28;20482;-86
2024/04/02 08:57:52;;;;;;;11.02;4.57;;;11.00;99.90;;;;;;5040451;28;20033;-86
2024/04/02 09:00:20;;;;;;;9.02;4.22;;;10.90;99.90;;;;;;5052667;28;20048;-86
2024/04/02 09:02:47;;;;;;;10.32;4.43;;;11.00;99.90;;;;;;5062134;28;20048;-86
2024/04/02 09:05:14;;;;;;;9.20;4.07;;;11.60;99.90;;;;;;5049201;28;20124;-86
2024/04/02 09:07:40;;;;;;;12.05;4.53;;;11.00;99.90;;;;;;5040282;28;20085;-86
2024/04/02 09:10:07;;;;;;;11.43;4.18;;;11.10;99.90;;;;;;5040264;28;20486;-86
2024/04/02 09:12:34;;;;;;;9.98;4.65;;;11.10;99.90;;;;;;5047900;28;20064;-87
2024/04/02 09:15:01;;;;;;;10.52;4.80;;;11.80;99.90;;;;;;5043811;28;20042;-86
2024/04/02 09:17:27;;;;;;;9.55;4.22;;;11.00;99.90;;;;;;5034041;28;20659;-86
2024/04/02 09:19:55;;;;;;;7.63;4.03;;;11.10;99.90;;;;;;5032631;28;20038;-86
2024/04/02 09:22:22;;;;;;;10.75;4.30;;;10.70;99.90;;;;;;5036654;28;20089;-86
2024/04/02 09:24:50;;;;;;;11.98;4.80;;;11.00;99.90;;;;;;5038800;28;20426;-87
2024/04/02 09:27:20;;;;;;;7.65;3.60;;;11.00;99.90;;;;;;5037489;28;20056;-86
2024/04/02 09:29:54;;;;;;;8.77;4.40;;;11.00;99.90;;;;;;5045143;28;20072;-87
2024/04/02 09:32:24;;;;;;;7.80;3.97;;;11.10;99.90;;;;;;5036575;28;20034;-87
2024/04/02 09:34:53;;;;;;;8.88;4.13;;;11.00;99.90;;;;;;5049019;28;20129;-87
2024/04/02 09:37:36;;;;;;;11.85;3.92;;;11.00;99.90;;;;;;5036264;28;20034;-87
2024/04/02 09:40:03;;;;;;;9.40;4.07;;;10.90;99.90;;;;;;5043805;28;20491;-87
2024/04/02 09:42:31;;;;;;;9.75;4.43;;;11.00;99.90;;;;;;5039936;28;20062;-86
2024/04/02 09:45:03;;;;;;;9.10;3.85;;;11.20;99.90;;;;;;5043192;28;20064;-86
2024/04/02 09:47:32;;;;;;;9.88;3.63;;;11.30;99.90;;;;;;5055823;28;20116;-86
2024/04/02 09:50:00;;;;;;;11.98;3.60;;;11.50;99.90;;;;;;5035918;28;20050;-86
2024/04/02 09:52:27;;;;;;;8.27;3.75;;;11.60;99.90;;;;;;5047483;28;20041;-86
2024/04/02 09:54:56;;;;;;;8.23;3.53;;;11.70;99.90;;;;;;5045457;28;21507;-86
2024/04/02 09:57:24;;;;;;;8.35;3.55;;;11.80;99.90;;;;;;5032021;28;20030;-86
2024/04/02 09:59:51;;;;;;;10.18;3.70;;;11.60;99.90;;;;;;5039440;28;20034;-86
2024/04/02 10:02:27;;;;;;;12.40;4.20;;;11.80;99.90;;;;;;5045567;28;20106;-86
2024/04/02 10:04:57;;;;;;;11.00;3.60;;;11.80;99.90;;;;;;5035036;28;20076;-85
2024/04/02 10:07:28;;;;;;;11.18;3.70;;;11.80;99.90;;;;;;5066889;28;20495;-86
2024/04/02 10:09:59;;;;;;;7.28;3.05;;;11.90;99.90;;;;;;5039024;28;20099;-86
2024/04/02 10:12:36;;;;;;;10.05;3.30;;;11.80;99.90;;;;;;5045403;28;20049;-85
2024/04/02 10:15:10;;;;;;;9.20;3.22;;;11.90;99.90;;;;;;5041490;28;20376;-85
2024/04/02 10:17:38;;;;;;;8.95;3.17;;;11.90;99.90;;;;;;5040906;28;20045;-85
2024/04/02 10:20:32;;;;;;;6.90;3.20;;;11.90;99.90;;;;;;5035105;28;20388;-87
2024/04/02 10:23:00;;;;;;;13.32;3.58;;;12.30;99.90;;;;;;5030812;28;20562;-87
2024/04/02 10:25:31;;;;;;;10.27;3.35;;;12.20;99.90;;;;;;5047978;28;20118;-87
2024/04/02 10:28:03;;;;;;;7.28;3.28;;;12.40;99.90;;;;;;5052727;28;20046;-87
2024/04/02 10:30:31;;;;;;;8.35;3.50;;;12.40;99.90;;;;;;5040789;28;20041;-87
2024/04/02 10:32:58;;;;;;;8.32;3.22;;;12.30;99.90;;;;;;5041167;28;20501;-87
2024/04/02 10:35:26;;;;;;;6.70;3.00;;;12.30;99.90;;;;;;5043368;28;20037;-88
2024/04/02 10:37:57;;;;;;;9.05;3.20;;;12.70;99.90;;;;;;5034292;28;20487;-87
2024/04/02 10:40:24;;;;;;;7.97;3.40;;;12.20;99.90;;;;;;5031815;28;20037;-88
2024/04/02 10:42:52;;;;;;;10.07;3.63;;;12.00;99.90;;;;;;5034730;28;20121;-88
2024/04/02 10:45:20;;;;;;;8.70;3.30;;;12.10;99.90;;;;;;5043603;28;20045;-88
2024/04/02 10:47:46;;;;;;;9.50;3.45;;;12.10;99.90;;;;;;5031432;28;20045;-87
2024/04/02 10:50:18;;;;;;;8.40;3.13;;;12.30;99.90;;;;;;5031457;28;20049;-87
2024/04/02 10:52:44;;;;;;;8.77;3.42;;;12.40;99.90;;;;;;5038933;28;20037;-87
2024/04/02 10:55:11;;;;;;;8.20;4.00;;;12.40;99.90;;;;;;5044704;28;20046;-87
2024/04/02 10:57:39;;;;;;;14.60;4.00;;;12.50;99.90;;;;;;5042511;28;20482;-86
2024/04/02 11:00:13;;;;;;;9.45;3.47;;;12.50;99.90;;;;;;5033606;28;20046;-86
2024/04/02 11:02:42;;;;;;;9.15;3.95;;;12.40;99.90;;;;;;5037562;28;20101;-86
2024/04/02 11:05:13;;;;;;;10.20;3.45;;;12.30;99.90;;;;;;5042935;28;20490;-86
2024/04/02 11:07:45;;;;;;;8.00;3.83;;;12.20;99.90;;;;;;5047316;28;20065;-87
2024/04/02 11:10:12;;;;;;;7.90;3.75;;;12.10;99.90;;;;;;5031137;28;20046;-87
2024/04/02 11:12:40;;;;;;;12.13;4.00;;;12.10;99.90;;;;;;5031284;28;20030;-87
2024/04/02 11:15:09;;;;;;;9.98;4.22;;;12.10;99.90;;;;;;5031601;28;20045;-87
2024/04/02 11:17:36;;;;;;;8.98;4.03;;;12.20;99.90;;;;;;5034365;28;20107;-87
2024/04/02 11:20:09;;;;;;;8.43;4.15;;;12.20;99.90;;;;;;5046993;28;20044;-86
2024/04/02 11:25:42;;;;;;;9.00;4.13;;;12.20;99.90;;;;;;4986807;28;20057;-86
2024/04/02 11:28:11;;;;;;;7.88;3.95;;;12.40;99.90;;;;;;4990681;28;20046;-87
2024/04/02 11:30:39;;;;;;;8.48;4.25;;;12.60;99.90;;;;;;5023132;28;20046;-87
2024/04/02 11:33:07;;;;;;;12.32;4.22;;;12.60;99.90;;;;;;5030014;28;20033;-87
2024/04/02 11:35:34;;;;;;;10.23;3.90;;;12.90;99.90;;;;;;5031053;28;20068;-87
2024/04/02 11:38:01;;;;;;;6.80;3.75;;;13.10;99.90;;;;;;5031027;28;20125;-86
2024/04/02 11:40:27;;;;;;;10.75;3.88;;;13.10;99.90;;;;;;5042806;28;20049;-87
2024/04/02 11:42:54;;;;;;;10.07;3.80;;;12.90;99.90;;;;;;5044081;28;20076;-87
2024/04/02 11:45:22;;;;;;;9.25;4.00;;;12.80;99.90;;;;;;5032868;28;20091;-87
2024/04/02 11:47:49;;;;;;;9.60;3.85;;;12.80;99.90;;;;;;5043237;28;20614;-88
2024/04/02 11:50:18;;;;;;;7.03;3.65;;;12.90;99.90;;;;;;5043481;28;20120;-86
2024/04/02 11:52:45;;;;;;;10.50;4.40;;;12.90;99.90;;;;;;5044226;28;20120;-85
2024/04/02 11:55:12;;;;;;;11.50;3.63;;;12.90;99.90;;;;;;5033895;28;20052;-85
2024/04/02 12:00:24;;;;;;;8.20;3.70;;;13.00;99.90;;;;;;5051352;28;20046;-85
2024/04/02 12:02:51;;;;;;;9.20;4.13;;;13.00;99.90;;;;;;5043349;28;20042;-85
2024/04/02 12:05:18;;;;;;;9.27;3.88;;;13.10;99.90;;;;;;5033077;28;20038;-85
2024/04/02 12:07:44;;;;;;;10.48;4.22;;;13.10;99.90;;;;;;5044712;28;20058;-85
2024/04/02 12:10:12;;;;;;;7.85;3.65;;;13.00;99.90;;;;;;5049861;28;20045;-85
2024/04/02 12:12:39;;;;;;;11.15;3.47;;;12.90;99.90;;;;;;5029882;28;20048;-85
2024/04/02 12:15:07;;;;;;;8.57;3.35;;;12.80;99.90;;;;;;5039429;28;20038;-85
2024/04/02 12:17:34;;;;;;;8.90;3.10;;;12.80;99.90;;;;;;5036601;28;20077;-85
2024/04/02 12:20:03;;;;;;;7.65;2.65;;;12.90;99.90;;;;;;5038723;28;20080;-85
2024/04/02 12:22:30;;;;;;;7.22;2.30;;;12.80;99.90;;;;;;5032057;28;20042;-85
2024/04/02 12:24:56;;;;;;;7.28;2.47;;;12.60;99.90;;;;;;5059521;28;20138;-85
2024/04/02 12:27:24;;;;;;;6.32;2.40;;;12.50;99.90;;;;;;5029860;28;20037;-85
2024/04/02 12:29:57;;;;;;;9.52;2.10;;;12.50;99.90;;;;;;5039692;28;20041;-85
2024/04/02 12:32:25;;;;;;;7.20;2.28;;;12.40;99.90;;;;;;5043458;28;20068;-85
2024/04/02 12:34:52;;;;;;;5.68;2.17;;;12.40;99.90;;;;;;5031850;28;20042;-85
2024/04/02 12:37:19;;;;;;;9.00;2.03;;;12.30;99.90;;;;;;5047996;28;20068;-85
2024/04/02 12:39:47;;;;;;;8.50;2.10;;;12.30;99.90;;;;;;5037077;28;20065;-85
2024/04/02 12:42:19;;;;;;;6.90;2.45;;;12.20;99.90;;;;;;5048397;28;20049;-85
2024/04/02 12:44:47;;;;;;;4.78;1.95;;;12.30;99.90;;;;;;5035958;28;20069;-85
2024/04/02 12:47:15;;;;;;;6.68;2.30;;;12.30;99.90;;;;;;5045215;28;20040;-85
2024/04/02 12:49:42;;;;;;;7.80;2.33;;;12.30;99.90;;;;;;5036521;28;20084;-84
2024/04/02 12:52:09;;;;;;;5.85;1.85;;;12.50;99.90;;;;;;5038907;28;20438;-85
2024/04/02 12:54:36;;;;;;;4.80;1.98;;;12.60;99.90;;;;;;5062207;28;20116;-85
2024/04/02 12:57:03;;;;;;;9.73;2.20;;;12.70;99.90;;;;;;5049293;28;20041;-85